AFR96 KMCO-LFPG
Flight info
| Callsign | AFR96 |
|---|---|
| Flight time | N/A |
| Altitude | 39000 |
| Route | FATHE4 VIYAP Q87 JROSS Q135 RAPZZ Q135 RREGG EARZZ Q131 KALDA Q167 TOPRR VALCO KYSKY Q430 FLAPE KURLY KANNI N97B SUPRY 4650N 4840N 4830N 4820N 4815N UMLER UN734 UMOXA ADSET UT512 ANG UN741 KEPER |
| Aircraft | A343/H-SDE2E3FGHIJ4J5M1RWXY/LB1D1 |
Departure
| Time | 2026-04-25 14:14 |
|---|---|
| Airport | Orlando International Airport (KMCO) |
Arrival
| Time | N/A |
|---|---|
| Airport | Charles de Gaulle International Airport (LFPG) |
| Time | Latitude | Longitude | Altitude | Speed | Heading |
|---|---|---|---|---|---|
| 2026-04-25 13:50 | 28.42922 | -81.31474 | 105 ft | 1 kts | 302° |
| 2026-04-25 13:51 | 28.42920 | -81.31472 | 105 ft | 0 kts | 302° |
| 2026-04-25 13:55 | 28.42923 | -81.31477 | 105 ft | 3 kts | 302° |
| 2026-04-25 13:55 | 28.42939 | -81.31505 | 105 ft | 4 kts | 301° |
| 2026-04-25 13:55 | 28.42949 | -81.31594 | 105 ft | 18 kts | 262° |
| 2026-04-25 13:55 | 28.42937 | -81.31698 | 106 ft | 9 kts | 268° |
| 2026-04-25 13:56 | 28.42938 | -81.31716 | 106 ft | 0 kts | 278° |
| 2026-04-25 13:56 | 28.42950 | -81.31743 | 107 ft | 5 kts | 304° |
| 2026-04-25 13:56 | 28.42964 | -81.31790 | 106 ft | 10 kts | 267° |
| 2026-04-25 13:56 | 28.42886 | -81.31835 | 106 ft | 14 kts | 182° |
| 2026-04-25 13:57 | 28.42792 | -81.31837 | 108 ft | 13 kts | 180° |
| 2026-04-25 13:57 | 28.42761 | -81.31837 | 109 ft | 14 kts | 180° |
| 2026-04-25 13:57 | 28.42559 | -81.31834 | 107 ft | 17 kts | 179° |
| 2026-04-25 13:57 | 28.42439 | -81.31832 | 110 ft | 17 kts | 179° |
| 2026-04-25 13:58 | 28.42352 | -81.31782 | 109 ft | 14 kts | 105° |
| 2026-04-25 13:58 | 28.42348 | -81.31660 | 108 ft | 17 kts | 89° |
| 2026-04-25 13:58 | 28.42349 | -81.31510 | 105 ft | 20 kts | 90° |
| 2026-04-25 13:58 | 28.42350 | -81.31354 | 104 ft | 20 kts | 90° |
| 2026-04-25 13:59 | 28.42344 | -81.31204 | 106 ft | 17 kts | 97° |
| 2026-04-25 13:59 | 28.42323 | -81.31078 | 105 ft | 16 kts | 101° |
| 2026-04-25 13:59 | 28.42317 | -81.30957 | 104 ft | 15 kts | 87° |
| 2026-04-25 13:59 | 28.42326 | -81.30828 | 105 ft | 18 kts | 86° |
| 2026-04-25 14:00 | 28.42332 | -81.30734 | 109 ft | 21 kts | 84° |
| 2026-04-25 14:00 | 28.42349 | -81.30497 | 110 ft | 22 kts | 85° |
| 2026-04-25 14:00 | 28.42358 | -81.30301 | 106 ft | 25 kts | 88° |
| 2026-04-25 14:00 | 28.42361 | -81.30090 | 108 ft | 27 kts | 90° |
| 2026-04-25 14:01 | 28.42362 | -81.29879 | 107 ft | 26 kts | 86° |
| 2026-04-25 14:01 | 28.42465 | -81.29795 | 107 ft | 18 kts | 0° |
| 2026-04-25 14:01 | 28.42588 | -81.29795 | 107 ft | 17 kts | 359° |
| 2026-04-25 14:01 | 28.42707 | -81.29796 | 107 ft | 17 kts | 359° |
| 2026-04-25 14:02 | 28.42816 | -81.29797 | 107 ft | 9 kts | 359° |
| 2026-04-25 14:02 | 28.42847 | -81.29798 | 107 ft | 0 kts | 359° |
| 2026-04-25 14:02 | 28.42855 | -81.29798 | 107 ft | 5 kts | 359° |
| 2026-04-25 14:02 | 28.42872 | -81.29798 | 107 ft | 9 kts | 359° |
| 2026-04-25 14:03 | 28.42880 | -81.29798 | 107 ft | 3 kts | 359° |
| 2026-04-25 14:03 | 28.42924 | -81.29798 | 107 ft | 0 kts | 359° |
| 2026-04-25 14:03 | 28.42936 | -81.29799 | 108 ft | 2 kts | 359° |
| 2026-04-25 14:04 | 28.42940 | -81.29799 | 108 ft | 0 kts | 359° |
| 2026-04-25 14:04 | 28.42942 | -81.29799 | 107 ft | 0 kts | 359° |
| 2026-04-25 14:04 | 28.42944 | -81.29799 | 107 ft | 0 kts | 359° |
| 2026-04-25 14:05 | 28.42946 | -81.29799 | 107 ft | 0 kts | 359° |
| 2026-04-25 14:05 | 28.42950 | -81.29799 | 107 ft | 1 kts | 359° |
| 2026-04-25 14:05 | 28.43000 | -81.29800 | 107 ft | 11 kts | 359° |
| 2026-04-25 14:05 | 28.43077 | -81.29801 | 107 ft | 11 kts | 359° |
| 2026-04-25 14:06 | 28.43153 | -81.29801 | 107 ft | 11 kts | 360° |
| 2026-04-25 14:06 | 28.43168 | -81.29801 | 107 ft | 0 kts | 360° |
| 2026-04-25 14:06 | 28.43185 | -81.29801 | 107 ft | 8 kts | 360° |
| 2026-04-25 14:06 | 28.43256 | -81.29802 | 107 ft | 13 kts | 359° |
| 2026-04-25 14:07 | 28.43350 | -81.29804 | 107 ft | 13 kts | 359° |
| 2026-04-25 14:07 | 28.43438 | -81.29805 | 107 ft | 12 kts | 359° |
| 2026-04-25 14:07 | 28.43450 | -81.29805 | 108 ft | 0 kts | 359° |
| 2026-04-25 14:08 | 28.43451 | -81.29805 | 108 ft | 1 kts | 359° |
| 2026-04-25 14:08 | 28.43484 | -81.29806 | 108 ft | 2 kts | 359° |
| 2026-04-25 14:09 | 28.43486 | -81.29806 | 108 ft | 3 kts | 359° |
| 2026-04-25 14:09 | 28.43499 | -81.29805 | 108 ft | 0 kts | 3° |
| 2026-04-25 14:10 | 28.43500 | -81.29805 | 108 ft | 2 kts | 3° |
| 2026-04-25 14:10 | 28.43548 | -81.29765 | 107 ft | 13 kts | 70° |
| 2026-04-25 14:10 | 28.43550 | -81.29712 | 107 ft | 0 kts | 88° |
| 2026-04-25 14:11 | 28.43550 | -81.29709 | 107 ft | 1 kts | 88° |
| 2026-04-25 14:11 | 28.43551 | -81.29656 | 107 ft | 13 kts | 88° |
| 2026-04-25 14:11 | 28.43528 | -81.29596 | 108 ft | 5 kts | 147° |
| 2026-04-25 14:12 | 28.43508 | -81.29591 | 109 ft | 0 kts | 177° |
| 2026-04-25 14:12 | 28.43457 | -81.29589 | 110 ft | 26 kts | 178° |
| 2026-04-25 14:13 | 28.43101 | -81.29582 | 110 ft | 77 kts | 179° |
| 2026-04-25 14:13 | 28.42404 | -81.29575 | 105 ft | 121 kts | 179° |
| 2026-04-25 14:13 | 28.41443 | -81.29558 | 145 ft | 152 kts | 179° |
| 2026-04-25 14:13 | 28.40386 | -81.29557 | 561 ft | 155 kts | 180° |
| 2026-04-25 14:14 | 28.39282 | -81.29505 | 939 ft | 163 kts | 173° |
| 2026-04-25 14:14 | 28.38162 | -81.29191 | 1314 ft | 173 kts | 160° |
| 2026-04-25 14:14 | 28.37039 | -81.28500 | 1558 ft | 195 kts | 149° |
| 2026-04-25 14:14 | 28.35889 | -81.27559 | 1826 ft | 214 kts | 139° |
| 2026-04-25 14:15 | 28.34988 | -81.26084 | 1972 ft | 245 kts | 109° |
| 2026-04-25 14:15 | 28.34874 | -81.24777 | 2263 ft | 258 kts | 82° |
| 2026-04-25 14:15 | 28.36094 | -81.22518 | 3271 ft | 261 kts | 32° |
| 2026-04-25 14:15 | 28.37818 | -81.21942 | 4030 ft | 263 kts | 355° |
| 2026-04-25 14:16 | 28.39514 | -81.22649 | 4773 ft | 265 kts | 319° |
| 2026-04-25 14:16 | 28.40515 | -81.24370 | 5469 ft | 267 kts | 285° |
| 2026-04-25 14:16 | 28.41287 | -81.26333 | 5913 ft | 279 kts | 302° |
| 2026-04-25 14:16 | 28.42671 | -81.27909 | 6466 ft | 288 kts | 328° |
| 2026-04-25 14:17 | 28.44459 | -81.28888 | 7342 ft | 280 kts | 335° |
| 2026-04-25 14:17 | 28.46307 | -81.29526 | 8221 ft | 278 kts | 348° |
| 2026-04-25 14:17 | 28.48225 | -81.29757 | 8943 ft | 279 kts | 354° |
| 2026-04-25 14:17 | 28.50183 | -81.29831 | 9635 ft | 282 kts | 356° |
| 2026-04-25 14:18 | 28.52154 | -81.29840 | 10252 ft | 286 kts | 357° |
| 2026-04-25 14:18 | 28.54193 | -81.29820 | 10562 ft | 300 kts | 358° |
| 2026-04-25 14:18 | 28.56331 | -81.29781 | 10824 ft | 315 kts | 358° |
| 2026-04-25 14:18 | 28.58572 | -81.29729 | 11100 ft | 328 kts | 358° |
| 2026-04-25 14:19 | 28.60900 | -81.29667 | 11373 ft | 341 kts | 358° |
| 2026-04-25 14:19 | 28.63316 | -81.29597 | 11639 ft | 354 kts | 359° |
| 2026-04-25 14:19 | 28.65804 | -81.29520 | 12009 ft | 362 kts | 359° |
| 2026-04-25 14:19 | 28.68337 | -81.29438 | 12516 ft | 366 kts | 359° |
| 2026-04-25 14:20 | 28.70899 | -81.29355 | 13081 ft | 369 kts | 359° |
| 2026-04-25 14:20 | 28.72605 | -81.29300 | 13440 ft | 371 kts | 359° |
| 2026-04-25 14:20 | 28.76082 | -81.29191 | 14102 ft | 376 kts | 359° |
| 2026-04-25 14:20 | 28.78717 | -81.29108 | 14529 ft | 380 kts | 359° |
| 2026-04-25 14:21 | 28.81380 | -81.29024 | 14987 ft | 385 kts | 359° |
| 2026-04-25 14:21 | 28.84074 | -81.28990 | 15458 ft | 388 kts | 355° |
| 2026-04-25 14:21 | 28.86747 | -81.29156 | 15905 ft | 392 kts | 353° |
| 2026-04-25 14:21 | 28.89477 | -81.29387 | 16368 ft | 395 kts | 353° |
| 2026-04-25 14:22 | 28.92237 | -81.29628 | 16830 ft | 399 kts | 353° |
| 2026-04-25 14:22 | 28.95021 | -81.29869 | 17308 ft | 403 kts | 353° |
| 2026-04-25 14:22 | 28.97828 | -81.30113 | 17786 ft | 406 kts | 352° |
| 2026-04-25 14:22 | 29.00665 | -81.30369 | 18273 ft | 409 kts | 352° |
| 2026-04-25 14:23 | 29.03505 | -81.30685 | 18682 ft | 412 kts | 351° |
| 2026-04-25 14:23 | 29.06363 | -81.31013 | 19140 ft | 414 kts | 351° |
| 2026-04-25 14:23 | 29.09240 | -81.31341 | 19599 ft | 415 kts | 351° |
| 2026-04-25 14:23 | 29.12120 | -81.31658 | 20034 ft | 418 kts | 353° |
| 2026-04-25 14:24 | 29.15010 | -81.31847 | 20464 ft | 420 kts | 354° |
| 2026-04-25 14:24 | 29.17933 | -81.31994 | 20901 ft | 422 kts | 354° |
| 2026-04-25 14:24 | 29.20870 | -81.32149 | 21320 ft | 424 kts | 354° |
| 2026-04-25 14:24 | 29.23830 | -81.32313 | 21747 ft | 426 kts | 354° |
| 2026-04-25 14:25 | 29.26803 | -81.32485 | 22137 ft | 429 kts | 354° |
| 2026-04-25 14:25 | 29.29795 | -81.32662 | 22508 ft | 432 kts | 354° |
| 2026-04-25 14:25 | 29.31400 | -81.32758 | 22713 ft | 433 kts | 354° |
| 2026-04-25 14:25 | 29.33388 | -81.32877 | 22989 ft | 434 kts | 354° |
| 2026-04-25 14:26 | 29.37434 | -81.33119 | 23519 ft | 437 kts | 354° |
| 2026-04-25 14:26 | 29.40480 | -81.33303 | 23837 ft | 439 kts | 354° |
| 2026-04-25 14:26 | 29.43497 | -81.33484 | 24144 ft | 441 kts | 354° |
| 2026-04-25 14:26 | 29.46401 | -81.33659 | 24431 ft | 443 kts | 354° |
| 2026-04-25 14:27 | 29.49499 | -81.33846 | 24731 ft | 445 kts | 355° |
| 2026-04-25 14:27 | 29.52555 | -81.34031 | 25003 ft | 447 kts | 355° |
| 2026-04-25 14:27 | 29.55673 | -81.34220 | 25282 ft | 449 kts | 355° |
| 2026-04-25 14:27 | 29.58808 | -81.34410 | 25535 ft | 452 kts | 355° |
| 2026-04-25 14:28 | 29.61949 | -81.34600 | 25819 ft | 454 kts | 355° |
| 2026-04-25 14:28 | 29.65117 | -81.34794 | 26123 ft | 455 kts | 355° |
| 2026-04-25 14:28 | 29.68290 | -81.34979 | 26392 ft | 457 kts | 355° |
| 2026-04-25 14:28 | 29.71471 | -81.35158 | 26663 ft | 459 kts | 355° |
| 2026-04-25 14:29 | 29.74665 | -81.35338 | 26927 ft | 460 kts | 355° |
| 2026-04-25 14:29 | 29.77875 | -81.35521 | 27191 ft | 462 kts | 355° |
| 2026-04-25 14:29 | 29.81086 | -81.35704 | 27453 ft | 464 kts | 355° |
| 2026-04-25 14:29 | 29.83204 | -81.35826 | 27626 ft | 465 kts | 356° |
| 2026-04-25 14:30 | 29.86185 | -81.35997 | 27834 ft | 467 kts | 356° |
| 2026-04-25 14:30 | 29.92699 | -81.36371 | 28311 ft | 470 kts | 356° |
| 2026-04-25 14:30 | 29.95971 | -81.36559 | 28556 ft | 471 kts | 356° |
| 2026-04-25 14:31 | 29.99212 | -81.36746 | 28789 ft | 472 kts | 356° |
| 2026-04-25 14:31 | 30.02492 | -81.36934 | 29112 ft | 472 kts | 356° |
| 2026-04-25 14:31 | 30.05758 | -81.37123 | 29461 ft | 470 kts | 356° |
| 2026-04-25 14:31 | 30.09024 | -81.37313 | 29792 ft | 469 kts | 356° |
| 2026-04-25 14:32 | 30.12283 | -81.37502 | 30101 ft | 468 kts | 356° |
| 2026-04-25 14:32 | 30.15527 | -81.37691 | 30349 ft | 468 kts | 356° |
| 2026-04-25 14:32 | 30.18781 | -81.37880 | 30592 ft | 467 kts | 356° |
| 2026-04-25 14:32 | 30.22028 | -81.38069 | 30832 ft | 467 kts | 356° |
| 2026-04-25 14:33 | 30.25272 | -81.38258 | 31064 ft | 466 kts | 356° |
| 2026-04-25 14:33 | 30.28510 | -81.38446 | 31290 ft | 466 kts | 356° |
| 2026-04-25 14:33 | 30.31759 | -81.38635 | 31506 ft | 466 kts | 356° |
| 2026-04-25 14:33 | 30.34995 | -81.38823 | 31738 ft | 465 kts | 355° |
| 2026-04-25 14:34 | 30.38186 | -81.39009 | 31939 ft | 465 kts | 355° |
| 2026-04-25 14:34 | 30.41426 | -81.39198 | 32156 ft | 464 kts | 355° |
| 2026-04-25 14:34 | 30.44657 | -81.39387 | 32360 ft | 464 kts | 355° |
| 2026-04-25 14:34 | 30.47872 | -81.39577 | 32562 ft | 464 kts | 355° |
| 2026-04-25 14:35 | 30.50791 | -81.39734 | 32777 ft | 463 kts | 355° |
| 2026-04-25 14:35 | 30.54017 | -81.39899 | 32966 ft | 463 kts | 355° |
| 2026-04-25 14:35 | 30.57227 | -81.40065 | 33162 ft | 462 kts | 355° |
| 2026-04-25 14:35 | 30.60454 | -81.40233 | 33343 ft | 462 kts | 355° |
| 2026-04-25 14:36 | 30.63659 | -81.40402 | 33533 ft | 462 kts | 355° |
| 2026-04-25 14:36 | 30.66872 | -81.40572 | 33696 ft | 462 kts | 355° |
| 2026-04-25 14:36 | 30.70077 | -81.40741 | 33894 ft | 461 kts | 355° |
| 2026-04-25 14:36 | 30.72784 | -81.40885 | 34046 ft | 460 kts | 355° |
| 2026-04-25 14:37 | 30.75983 | -81.41054 | 34198 ft | 459 kts | 355° |
| 2026-04-25 14:37 | 30.79178 | -81.41224 | 34345 ft | 459 kts | 355° |
| 2026-04-25 14:37 | 30.82364 | -81.41392 | 34493 ft | 458 kts | 355° |
| 2026-04-25 14:37 | 30.85554 | -81.41562 | 34638 ft | 458 kts | 355° |
| 2026-04-25 14:38 | 30.88737 | -81.41731 | 34783 ft | 457 kts | 355° |
| 2026-04-25 14:38 | 30.91914 | -81.41899 | 34921 ft | 457 kts | 355° |
| 2026-04-25 14:38 | 30.95087 | -81.42068 | 35052 ft | 456 kts | 355° |
| 2026-04-25 14:38 | 30.98255 | -81.42236 | 35197 ft | 455 kts | 355° |
| 2026-04-25 14:39 | 31.01419 | -81.42405 | 35333 ft | 455 kts | 355° |
| 2026-04-25 14:39 | 31.04577 | -81.42573 | 35458 ft | 454 kts | 355° |
| 2026-04-25 14:39 | 31.07747 | -81.42742 | 35585 ft | 454 kts | 355° |
| 2026-04-25 14:39 | 31.10908 | -81.42910 | 35708 ft | 454 kts | 355° |
| 2026-04-25 14:40 | 31.14054 | -81.43078 | 35833 ft | 453 kts | 355° |
| 2026-04-25 14:40 | 31.17203 | -81.43246 | 35950 ft | 453 kts | 355° |
| 2026-04-25 14:40 | 31.20356 | -81.43405 | 36060 ft | 453 kts | 356° |
| 2026-04-25 14:40 | 31.23508 | -81.43269 | 36132 ft | 455 kts | 4° |
| 2026-04-25 14:41 | 31.29628 | -81.41315 | 36258 ft | 460 kts | 19° |
| 2026-04-25 14:41 | 31.32562 | -81.39841 | 36402 ft | 459 kts | 20° |
| 2026-04-25 14:41 | 31.35459 | -81.38312 | 36520 ft | 458 kts | 21° |
| 2026-04-25 14:42 | 31.39310 | -81.36218 | 36650 ft | 458 kts | 21° |
| 2026-04-25 14:42 | 31.44107 | -81.33583 | 36802 ft | 458 kts | 21° |
| 2026-04-25 14:42 | 31.46989 | -81.32003 | 36894 ft | 458 kts | 21° |
| 2026-04-25 14:43 | 31.52773 | -81.28842 | 37050 ft | 458 kts | 21° |
| 2026-04-25 14:43 | 31.55655 | -81.27271 | 37191 ft | 456 kts | 21° |
| 2026-04-25 14:43 | 31.58523 | -81.25707 | 37451 ft | 452 kts | 21° |
| 2026-04-25 14:44 | 31.61383 | -81.24147 | 37562 ft | 451 kts | 21° |
| 2026-04-25 14:44 | 31.64229 | -81.22594 | 37605 ft | 452 kts | 21° |
| 2026-04-25 14:44 | 31.69936 | -81.19482 | 37752 ft | 451 kts | 21° |
| 2026-04-25 14:45 | 31.75632 | -81.16371 | 37869 ft | 451 kts | 21° |
| 2026-04-25 14:45 | 31.81292 | -81.13266 | 37978 ft | 452 kts | 21° |
| 2026-04-25 14:46 | 31.86984 | -81.10142 | 38122 ft | 451 kts | 21° |
| 2026-04-25 14:46 | 31.92671 | -81.07018 | 38247 ft | 450 kts | 21° |
| 2026-04-25 14:47 | 31.96469 | -81.04930 | 38317 ft | 450 kts | 21° |
| 2026-04-25 14:47 | 32.04040 | -81.00757 | 38414 ft | 451 kts | 22° |
| 2026-04-25 14:48 | 32.09738 | -80.97563 | 38400 ft | 454 kts | 22° |
| 2026-04-25 14:48 | 32.15431 | -80.94361 | 38536 ft | 453 kts | 22° |
| 2026-04-25 14:49 | 32.21127 | -80.91162 | 38592 ft | 454 kts | 22° |
| 2026-04-25 14:49 | 32.23939 | -80.89582 | 38719 ft | 452 kts | 21° |
| 2026-04-25 14:49 | 32.26801 | -80.87973 | 38819 ft | 450 kts | 21° |
| 2026-04-25 14:50 | 32.32451 | -80.84797 | 38716 ft | 455 kts | 21° |
| 2026-04-25 14:50 | 32.38176 | -80.81576 | 38778 ft | 455 kts | 21° |
| 2026-04-25 14:51 | 32.43883 | -80.78358 | 38829 ft | 455 kts | 21° |
| 2026-04-25 14:51 | 32.49605 | -80.75126 | 38866 ft | 456 kts | 21° |
| 2026-04-25 14:52 | 32.54362 | -80.72437 | 38895 ft | 456 kts | 21° |
| 2026-04-25 14:52 | 32.59175 | -80.69712 | 38871 ft | 458 kts | 22° |
| 2026-04-25 14:53 | 32.65857 | -80.65925 | 38935 ft | 458 kts | 22° |
| 2026-04-25 14:53 | 32.71354 | -80.62032 | 38920 ft | 464 kts | 36° |
| 2026-04-25 14:54 | 32.75916 | -80.56612 | 38934 ft | 469 kts | 44° |
| 2026-04-25 14:54 | 32.80237 | -80.50801 | 38933 ft | 469 kts | 45° |
| 2026-04-25 14:55 | 32.84507 | -80.44941 | 38934 ft | 468 kts | 45° |
| 2026-04-25 14:55 | 32.88806 | -80.39067 | 38938 ft | 469 kts | 45° |
| 2026-04-25 14:56 | 32.93098 | -80.33226 | 38940 ft | 469 kts | 45° |
| 2026-04-25 14:56 | 32.97394 | -80.27378 | 38942 ft | 469 kts | 45° |
| 2026-04-25 14:57 | 33.01687 | -80.21522 | 38926 ft | 469 kts | 45° |
| 2026-04-25 14:57 | 33.05975 | -80.15667 | 38929 ft | 469 kts | 45° |
| 2026-04-25 14:58 | 33.10267 | -80.09798 | 38947 ft | 469 kts | 45° |
| 2026-04-25 14:58 | 33.14558 | -80.03917 | 38931 ft | 470 kts | 45° |
| 2026-04-25 14:59 | 33.18841 | -79.98034 | 38942 ft | 470 kts | 45° |
| 2026-04-25 14:59 | 33.23100 | -79.92176 | 38943 ft | 470 kts | 45° |
| 2026-04-25 15:00 | 33.27388 | -79.86274 | 38944 ft | 470 kts | 45° |
| 2026-04-25 15:00 | 33.31673 | -79.80363 | 38927 ft | 471 kts | 45° |
| 2026-04-25 15:01 | 33.35964 | -79.74434 | 38925 ft | 471 kts | 45° |
| 2026-04-25 15:01 | 33.39791 | -79.69133 | 38926 ft | 470 kts | 45° |
| 2026-04-25 15:02 | 33.43676 | -79.63748 | 38944 ft | 470 kts | 45° |
| 2026-04-25 15:02 | 33.47923 | -79.57856 | 38930 ft | 470 kts | 45° |
| 2026-04-25 15:03 | 33.52194 | -79.51918 | 38934 ft | 470 kts | 45° |
| 2026-04-25 15:03 | 33.55740 | -79.46981 | 38934 ft | 471 kts | 45° |
| 2026-04-25 15:04 | 33.58092 | -79.43702 | 38933 ft | 472 kts | 45° |
| 2026-04-25 15:04 | 33.62454 | -79.37615 | 38930 ft | 472 kts | 46° |
| 2026-04-25 15:05 | 33.66725 | -79.31643 | 38929 ft | 470 kts | 46° |
| 2026-04-25 15:06 | 33.73096 | -79.22733 | 38933 ft | 469 kts | 46° |
| 2026-04-25 15:06 | 33.77352 | -79.16763 | 38938 ft | 471 kts | 45° |
| 2026-04-25 15:07 | 33.81625 | -79.10759 | 38905 ft | 472 kts | 46° |
| 2026-04-25 15:07 | 33.85863 | -79.04797 | 38938 ft | 472 kts | 46° |
| 2026-04-25 15:08 | 33.90093 | -78.98834 | 38404 ft | 465 kts | 46° |
| 2026-04-25 15:08 | 33.92189 | -78.95875 | 37891 ft | 463 kts | 46° |
| 2026-04-25 15:08 | 33.94282 | -78.92921 | 37328 ft | 462 kts | 46° |
| 2026-04-25 15:08 | 33.96369 | -78.89975 | 36768 ft | 462 kts | 46° |
| 2026-04-25 15:09 | 33.98462 | -78.87019 | 36142 ft | 464 kts | 46° |
| 2026-04-25 15:09 | 34.00563 | -78.84051 | 35481 ft | 466 kts | 47° |
| 2026-04-25 15:09 | 34.04787 | -78.78078 | 34939 ft | 471 kts | 47° |
| 2026-04-25 15:10 | 34.09071 | -78.72010 | 34936 ft | 477 kts | 47° |
| 2026-04-25 15:11 | 34.15485 | -78.62895 | 34943 ft | 475 kts | 47° |
| 2026-04-25 15:11 | 34.19780 | -78.56771 | 34946 ft | 474 kts | 47° |
| 2026-04-25 15:12 | 34.26347 | -78.47900 | 34934 ft | 474 kts | 40° |
| 2026-04-25 15:12 | 34.29608 | -78.44290 | 34933 ft | 475 kts | 39° |
| 2026-04-25 15:13 | 34.38701 | -78.34581 | 34923 ft | 476 kts | 39° |
| 2026-04-25 15:14 | 34.43669 | -78.29281 | 34915 ft | 476 kts | 39° |
| 2026-04-25 15:14 | 34.48637 | -78.23958 | 34922 ft | 477 kts | 39° |
| 2026-04-25 15:15 | 34.53605 | -78.18622 | 34921 ft | 477 kts | 39° |
| 2026-04-25 15:15 | 34.58541 | -78.13309 | 34933 ft | 477 kts | 39° |
| 2026-04-25 15:16 | 34.63503 | -78.07962 | 34939 ft | 477 kts | 39° |
| 2026-04-25 15:16 | 34.70979 | -77.99888 | 34942 ft | 478 kts | 39° |
| 2026-04-25 15:17 | 34.78398 | -77.91856 | 34935 ft | 478 kts | 39° |
| 2026-04-25 15:18 | 34.83369 | -77.86463 | 34943 ft | 478 kts | 39° |
| 2026-04-25 15:18 | 34.90851 | -77.78441 | 34937 ft | 477 kts | 37° |
| 2026-04-25 15:19 | 34.94220 | -77.74979 | 34938 ft | 478 kts | 37° |
| 2026-04-25 15:19 | 35.01001 | -77.68021 | 34934 ft | 479 kts | 37° |
| 2026-04-25 15:20 | 35.06079 | -77.62765 | 34931 ft | 479 kts | 37° |
| 2026-04-25 15:20 | 35.11155 | -77.57483 | 34925 ft | 478 kts | 37° |
| 2026-04-25 15:21 | 35.16257 | -77.52254 | 34923 ft | 478 kts | 34° |
| 2026-04-25 15:21 | 35.21666 | -77.47495 | 34920 ft | 478 kts | 31° |
| 2026-04-25 15:22 | 35.27131 | -77.42862 | 34922 ft | 479 kts | 32° |
| 2026-04-25 15:22 | 35.32572 | -77.38141 | 34918 ft | 479 kts | 32° |
| 2026-04-25 15:23 | 35.37977 | -77.33369 | 34914 ft | 479 kts | 33° |
| 2026-04-25 15:23 | 35.43342 | -77.28604 | 34899 ft | 479 kts | 33° |
| 2026-04-25 15:24 | 35.48737 | -77.23810 | 34910 ft | 479 kts | 33° |
| 2026-04-25 15:24 | 35.52342 | -77.20602 | 34913 ft | 479 kts | 33° |
| 2026-04-25 15:25 | 35.59519 | -77.14206 | 34918 ft | 479 kts | 32° |
| 2026-04-25 15:25 | 35.64941 | -77.09366 | 34916 ft | 481 kts | 32° |
| 2026-04-25 15:26 | 35.70355 | -77.04527 | 34911 ft | 481 kts | 32° |
| 2026-04-25 15:26 | 35.75736 | -76.99708 | 34906 ft | 481 kts | 32° |
| 2026-04-25 15:27 | 35.81137 | -76.94861 | 34901 ft | 481 kts | 32° |
| 2026-04-25 15:28 | 35.89266 | -76.87552 | 34890 ft | 482 kts | 32° |
| 2026-04-25 15:28 | 35.94966 | -76.83287 | 34893 ft | 478 kts | 25° |
| 2026-04-25 15:29 | 36.00791 | -76.79350 | 34897 ft | 477 kts | 24° |
| 2026-04-25 15:29 | 36.06646 | -76.75448 | 34901 ft | 478 kts | 24° |
| 2026-04-25 15:30 | 36.12514 | -76.71526 | 34899 ft | 479 kts | 24° |
| 2026-04-25 15:30 | 36.18376 | -76.67588 | 34900 ft | 479 kts | 24° |
| 2026-04-25 15:31 | 36.24210 | -76.63657 | 34905 ft | 479 kts | 23° |
| 2026-04-25 15:31 | 36.30061 | -76.59708 | 34891 ft | 479 kts | 23° |
| 2026-04-25 15:32 | 36.35877 | -76.55777 | 34882 ft | 479 kts | 23° |
| 2026-04-25 15:32 | 36.41739 | -76.51808 | 34882 ft | 479 kts | 23° |
| 2026-04-25 15:33 | 36.50512 | -76.45855 | 34886 ft | 478 kts | 23° |
| 2026-04-25 15:33 | 36.56335 | -76.41894 | 34896 ft | 477 kts | 23° |
| 2026-04-25 15:34 | 36.62131 | -76.37946 | 34896 ft | 478 kts | 23° |
| 2026-04-25 15:34 | 36.66037 | -76.35282 | 34897 ft | 478 kts | 23° |
| 2026-04-25 15:35 | 36.76714 | -76.27983 | 34897 ft | 478 kts | 23° |
| 2026-04-25 15:36 | 36.85479 | -76.21972 | 34888 ft | 478 kts | 23° |
| 2026-04-25 15:36 | 36.91302 | -76.17970 | 34898 ft | 478 kts | 22° |
| 2026-04-25 15:37 | 36.97097 | -76.13980 | 34896 ft | 479 kts | 22° |
| 2026-04-25 15:37 | 37.02937 | -76.09953 | 34888 ft | 478 kts | 22° |
| 2026-04-25 15:38 | 37.07778 | -76.06608 | 34891 ft | 478 kts | 22° |
| 2026-04-25 15:38 | 37.13600 | -76.02601 | 34905 ft | 476 kts | 21° |
| 2026-04-25 15:39 | 37.19598 | -75.99138 | 34902 ft | 474 kts | 17° |
| 2026-04-25 15:39 | 37.25680 | -75.95907 | 34904 ft | 474 kts | 17° |
| 2026-04-25 15:40 | 37.30706 | -75.93178 | 34904 ft | 475 kts | 17° |
| 2026-04-25 15:40 | 37.37743 | -75.89253 | 34925 ft | 475 kts | 17° |
| 2026-04-25 15:41 | 37.43791 | -75.85840 | 34933 ft | 476 kts | 17° |
| 2026-04-25 15:41 | 37.49837 | -75.82423 | 34939 ft | 476 kts | 17° |
| 2026-04-25 15:42 | 37.55890 | -75.78999 | 34942 ft | 476 kts | 17° |
| 2026-04-25 15:42 | 37.61939 | -75.75572 | 34944 ft | 475 kts | 17° |
| 2026-04-25 15:43 | 37.67902 | -75.72188 | 34944 ft | 475 kts | 17° |
| 2026-04-25 15:43 | 37.73981 | -75.68733 | 34944 ft | 475 kts | 17° |
| 2026-04-25 15:44 | 37.79975 | -75.65321 | 34945 ft | 475 kts | 17° |
| 2026-04-25 15:44 | 37.84536 | -75.62447 | 34970 ft | 482 kts | 25° |
| 2026-04-25 15:45 | 37.89370 | -75.58452 | 34980 ft | 484 kts | 27° |
| 2026-04-25 15:45 | 37.94014 | -75.54448 | 34981 ft | 485 kts | 27° |
| 2026-04-25 15:46 | 38.00493 | -75.48779 | 34961 ft | 485 kts | 27° |
| 2026-04-25 15:46 | 38.06026 | -75.43932 | 34972 ft | 486 kts | 27° |
| 2026-04-25 15:47 | 38.11512 | -75.38888 | 34987 ft | 487 kts | 29° |
| 2026-04-25 15:47 | 38.16922 | -75.33701 | 34983 ft | 486 kts | 30° |
| 2026-04-25 15:48 | 38.22311 | -75.28552 | 35004 ft | 486 kts | 29° |
| 2026-04-25 15:48 | 38.27732 | -75.23410 | 35005 ft | 486 kts | 29° |
| 2026-04-25 15:49 | 38.33161 | -75.18268 | 35007 ft | 486 kts | 29° |
| 2026-04-25 15:49 | 38.38597 | -75.13111 | 35005 ft | 486 kts | 29° |
| 2026-04-25 15:50 | 38.44016 | -75.07957 | 35009 ft | 486 kts | 29° |
| 2026-04-25 15:50 | 38.49400 | -75.02747 | 35000 ft | 488 kts | 32° |
| 2026-04-25 15:51 | 38.53686 | -74.97979 | 35004 ft | 490 kts | 34° |
| 2026-04-25 15:51 | 38.59677 | -74.91408 | 35027 ft | 487 kts | 31° |
| 2026-04-25 15:52 | 38.64939 | -74.85933 | 35018 ft | 487 kts | 31° |
| 2026-04-25 15:52 | 38.70209 | -74.80485 | 35020 ft | 487 kts | 31° |
| 2026-04-25 15:53 | 38.75470 | -74.75015 | 35026 ft | 487 kts | 31° |
| 2026-04-25 15:53 | 38.80611 | -74.69264 | 35040 ft | 491 kts | 35° |
| 2026-04-25 15:54 | 38.85571 | -74.63323 | 35034 ft | 491 kts | 35° |
| 2026-04-25 15:54 | 38.90575 | -74.57352 | 35033 ft | 491 kts | 34° |
| 2026-04-25 15:55 | 38.95610 | -74.51432 | 35039 ft | 490 kts | 33° |
| 2026-04-25 15:55 | 39.00795 | -74.45791 | 35043 ft | 487 kts | 31° |
| 2026-04-25 15:56 | 39.06035 | -74.40253 | 35042 ft | 487 kts | 31° |
| 2026-04-25 15:56 | 39.11255 | -74.34677 | 35053 ft | 488 kts | 32° |
| 2026-04-25 15:57 | 39.16457 | -74.29054 | 35053 ft | 486 kts | 32° |
| 2026-04-25 15:57 | 39.21593 | -74.23475 | 35056 ft | 486 kts | 32° |
| 2026-04-25 15:58 | 39.26760 | -74.17851 | 35060 ft | 486 kts | 32° |
| 2026-04-25 15:58 | 39.31925 | -74.12222 | 35069 ft | 486 kts | 32° |
| 2026-04-25 15:59 | 39.37094 | -74.06578 | 35083 ft | 486 kts | 32° |
| 2026-04-25 15:59 | 39.42264 | -74.00924 | 35067 ft | 485 kts | 32° |
| 2026-04-25 16:00 | 39.45682 | -73.97184 | 35079 ft | 485 kts | 32° |
| 2026-04-25 16:00 | 39.52534 | -73.89640 | 35082 ft | 484 kts | 32° |
| 2026-04-25 16:01 | 39.57637 | -73.84012 | 35077 ft | 484 kts | 32° |
| 2026-04-25 16:01 | 39.62758 | -73.78356 | 35084 ft | 484 kts | 32° |
| 2026-04-25 16:02 | 39.67882 | -73.72686 | 35083 ft | 484 kts | 32° |
| 2026-04-25 16:02 | 39.73001 | -73.67011 | 35083 ft | 484 kts | 32° |
| 2026-04-25 16:03 | 39.78121 | -73.61322 | 35094 ft | 482 kts | 32° |
| 2026-04-25 16:03 | 39.83207 | -73.55641 | 35092 ft | 483 kts | 34° |
| 2026-04-25 16:04 | 39.87788 | -73.49094 | 35101 ft | 492 kts | 42° |
| 2026-04-25 16:04 | 39.92119 | -73.42179 | 35103 ft | 493 kts | 43° |
| 2026-04-25 16:05 | 39.96393 | -73.35203 | 35108 ft | 492 kts | 43° |
| 2026-04-25 16:06 | 40.02794 | -73.24755 | 35108 ft | 490 kts | 43° |
| 2026-04-25 16:06 | 40.07034 | -73.17844 | 35112 ft | 490 kts | 43° |
| 2026-04-25 16:07 | 40.11515 | -73.11218 | 35120 ft | 484 kts | 38° |
| 2026-04-25 16:07 | 40.16182 | -73.04910 | 35119 ft | 482 kts | 37° |
| 2026-04-25 16:08 | 40.20875 | -72.98651 | 35118 ft | 482 kts | 37° |
| 2026-04-25 16:08 | 40.25564 | -72.92386 | 35135 ft | 481 kts | 37° |
| 2026-04-25 16:09 | 40.30216 | -72.86141 | 35133 ft | 480 kts | 37° |
| 2026-04-25 16:09 | 40.34872 | -72.79868 | 35136 ft | 480 kts | 37° |
| 2026-04-25 16:10 | 40.39523 | -72.73591 | 35142 ft | 480 kts | 37° |
| 2026-04-25 16:10 | 40.44181 | -72.67291 | 35141 ft | 480 kts | 37° |
| 2026-04-25 16:11 | 40.48825 | -72.60998 | 35155 ft | 479 kts | 37° |
| 2026-04-25 16:11 | 40.53439 | -72.54729 | 35151 ft | 479 kts | 36° |
| 2026-04-25 16:12 | 40.58070 | -72.48427 | 35152 ft | 479 kts | 37° |
| 2026-04-25 16:12 | 40.62697 | -72.42115 | 35151 ft | 479 kts | 37° |
| 2026-04-25 16:13 | 40.67322 | -72.35794 | 35147 ft | 479 kts | 36° |
| 2026-04-25 16:13 | 40.71944 | -72.29463 | 35148 ft | 479 kts | 36° |
| 2026-04-25 16:14 | 40.76470 | -72.22971 | 35139 ft | 487 kts | 43° |
| 2026-04-25 16:14 | 40.78342 | -72.19199 | 35163 ft | 499 kts | 53° |
| 2026-04-25 16:14 | 40.79794 | -72.14983 | 35185 ft | 506 kts | 59° |
| 2026-04-25 16:15 | 40.82240 | -72.06233 | 35148 ft | 509 kts | 62° |
| 2026-04-25 16:15 | 40.84517 | -71.97373 | 35154 ft | 509 kts | 63° |
| 2026-04-25 16:16 | 40.86790 | -71.88511 | 35171 ft | 509 kts | 62° |
| 2026-04-25 16:16 | 40.89083 | -71.79666 | 35158 ft | 508 kts | 62° |
| 2026-04-25 16:17 | 40.91371 | -71.70869 | 35158 ft | 508 kts | 62° |
| 2026-04-25 16:17 | 40.93662 | -71.62041 | 35156 ft | 508 kts | 62° |
| 2026-04-25 16:18 | 40.95989 | -71.53203 | 35167 ft | 507 kts | 60° |
| 2026-04-25 16:18 | 40.98306 | -71.44436 | 35156 ft | 503 kts | 60° |
| 2026-04-25 16:19 | 41.00613 | -71.35673 | 35155 ft | 503 kts | 61° |
| 2026-04-25 16:19 | 41.02706 | -71.26776 | 35151 ft | 508 kts | 65° |
| 2026-04-25 16:20 | 41.05468 | -71.13256 | 35154 ft | 508 kts | 65° |
| 2026-04-25 16:20 | 41.08097 | -71.04819 | 35148 ft | 483 kts | 47° |
| 2026-04-25 16:21 | 41.09899 | -71.01060 | 35138 ft | 481 kts | 45° |
| 2026-04-25 16:21 | 41.13705 | -70.93771 | 35140 ft | 480 kts | 44° |
| 2026-04-25 16:22 | 41.17587 | -70.86554 | 35160 ft | 480 kts | 43° |
| 2026-04-25 16:22 | 41.21444 | -70.79327 | 35143 ft | 479 kts | 43° |
| 2026-04-25 16:23 | 41.24626 | -70.73306 | 35151 ft | 478 kts | 44° |
| 2026-04-25 16:23 | 41.28439 | -70.66057 | 35136 ft | 479 kts | 44° |
| 2026-04-25 16:24 | 41.32249 | -70.58794 | 35151 ft | 479 kts | 44° |
| 2026-04-25 16:24 | 41.36056 | -70.51522 | 35157 ft | 479 kts | 43° |
| 2026-04-25 16:25 | 41.39846 | -70.44262 | 35145 ft | 476 kts | 43° |
| 2026-04-25 16:25 | 41.43626 | -70.37008 | 35143 ft | 476 kts | 43° |
| 2026-04-25 16:26 | 41.47413 | -70.29729 | 35138 ft | 477 kts | 43° |
| 2026-04-25 16:26 | 41.51159 | -70.22507 | 35131 ft | 477 kts | 43° |
| 2026-04-25 16:27 | 41.54923 | -70.15229 | 35132 ft | 475 kts | 43° |
| 2026-04-25 16:27 | 41.58689 | -70.07930 | 35146 ft | 475 kts | 43° |
| 2026-04-25 16:28 | 41.62416 | -70.00693 | 35145 ft | 475 kts | 43° |
| 2026-04-25 16:28 | 41.66161 | -69.93406 | 35151 ft | 475 kts | 43° |
| 2026-04-25 16:29 | 41.69896 | -69.86119 | 35177 ft | 475 kts | 43° |
| 2026-04-25 16:29 | 41.73611 | -69.78824 | 35142 ft | 476 kts | 45° |
| 2026-04-25 16:29 | 41.75253 | -69.74890 | 35145 ft | 487 kts | 51° |
| 2026-04-25 16:30 | 41.76724 | -69.70823 | 35144 ft | 488 kts | 52° |
| 2026-04-25 16:30 | 41.79554 | -69.62533 | 35160 ft | 490 kts | 53° |
| 2026-04-25 16:31 | 41.82331 | -69.54170 | 35143 ft | 489 kts | 54° |
| 2026-04-25 16:31 | 41.85079 | -69.45887 | 35140 ft | 488 kts | 53° |
| 2026-04-25 16:32 | 41.87847 | -69.37566 | 35136 ft | 487 kts | 53° |
| 2026-04-25 16:32 | 41.90605 | -69.29272 | 35135 ft | 487 kts | 53° |
| 2026-04-25 16:33 | 41.93363 | -69.20954 | 35129 ft | 487 kts | 53° |
| 2026-04-25 16:33 | 41.96110 | -69.12636 | 35133 ft | 485 kts | 53° |
| 2026-04-25 16:34 | 41.98840 | -69.04345 | 35130 ft | 485 kts | 53° |
| 2026-04-25 16:34 | 42.01563 | -68.96054 | 35127 ft | 485 kts | 53° |
| 2026-04-25 16:35 | 42.04267 | -68.87793 | 35150 ft | 485 kts | 53° |
| 2026-04-25 16:35 | 42.06987 | -68.79461 | 35128 ft | 485 kts | 53° |
| 2026-04-25 16:36 | 42.09694 | -68.71137 | 35121 ft | 485 kts | 53° |
| 2026-04-25 16:36 | 42.12399 | -68.62797 | 35122 ft | 486 kts | 53° |
| 2026-04-25 16:37 | 42.15098 | -68.54449 | 35119 ft | 486 kts | 53° |
| 2026-04-25 16:37 | 42.17779 | -68.46133 | 35122 ft | 486 kts | 53° |
| 2026-04-25 16:38 | 42.20473 | -68.37751 | 35115 ft | 487 kts | 53° |
| 2026-04-25 16:38 | 42.23158 | -68.29369 | 35110 ft | 487 kts | 53° |
| 2026-04-25 16:39 | 42.25842 | -68.20964 | 35118 ft | 487 kts | 53° |
| 2026-04-25 16:39 | 42.28521 | -68.12550 | 35124 ft | 489 kts | 54° |
| 2026-04-25 16:40 | 42.31207 | -68.04090 | 35108 ft | 491 kts | 54° |
| 2026-04-25 16:40 | 42.33891 | -67.95601 | 35107 ft | 491 kts | 54° |
| 2026-04-25 16:41 | 42.36568 | -67.87108 | 35108 ft | 491 kts | 54° |
| 2026-04-25 16:41 | 42.40561 | -67.74393 | 35110 ft | 491 kts | 54° |
| 2026-04-25 16:42 | 42.43227 | -67.65869 | 35273 ft | 491 kts | 55° |
| 2026-04-25 16:42 | 42.44555 | -67.61606 | 35477 ft | 490 kts | 55° |
| 2026-04-25 16:42 | 42.45871 | -67.57374 | 35632 ft | 489 kts | 55° |
| 2026-04-25 16:43 | 42.47196 | -67.53110 | 35799 ft | 489 kts | 56° |
| 2026-04-25 16:43 | 42.48510 | -67.48874 | 35948 ft | 488 kts | 56° |
| 2026-04-25 16:43 | 42.49822 | -67.44640 | 36078 ft | 488 kts | 56° |
| 2026-04-25 16:43 | 42.51138 | -67.40386 | 36201 ft | 489 kts | 56° |
| 2026-04-25 16:44 | 42.52453 | -67.36130 | 36317 ft | 489 kts | 57° |
| 2026-04-25 16:44 | 42.53766 | -67.31871 | 36441 ft | 489 kts | 57° |
| 2026-04-25 16:44 | 42.55073 | -67.27625 | 36559 ft | 489 kts | 57° |
| 2026-04-25 16:44 | 42.56381 | -67.23369 | 36667 ft | 489 kts | 57° |
| 2026-04-25 16:45 | 42.57688 | -67.19112 | 36829 ft | 488 kts | 57° |
| 2026-04-25 16:45 | 42.58987 | -67.14866 | 36972 ft | 488 kts | 58° |
| 2026-04-25 16:45 | 42.61594 | -67.06341 | 37086 ft | 490 kts | 58° |
| 2026-04-25 16:46 | 42.64203 | -66.97770 | 37072 ft | 490 kts | 59° |
| 2026-04-25 16:46 | 42.65799 | -66.92028 | 37079 ft | 491 kts | 61° |
| 2026-04-25 16:47 | 42.68822 | -66.80354 | 37084 ft | 492 kts | 62° |
| 2026-04-25 16:47 | 42.71096 | -66.71630 | 37070 ft | 490 kts | 62° |
| 2026-04-25 16:48 | 42.73398 | -66.62902 | 37062 ft | 490 kts | 62° |
| 2026-04-25 16:48 | 42.75701 | -66.54181 | 37059 ft | 489 kts | 62° |
| 2026-04-25 16:49 | 42.78001 | -66.45444 | 37060 ft | 489 kts | 62° |
| 2026-04-25 16:49 | 42.80289 | -66.36716 | 37046 ft | 489 kts | 62° |
| 2026-04-25 16:50 | 42.82184 | -66.29463 | 37058 ft | 489 kts | 62° |
| 2026-04-25 16:50 | 42.84842 | -66.19246 | 37037 ft | 489 kts | 63° |
| 2026-04-25 16:51 | 42.87100 | -66.10532 | 37035 ft | 488 kts | 63° |
| 2026-04-25 16:51 | 42.88595 | -66.04744 | 37032 ft | 488 kts | 63° |
| 2026-04-25 16:52 | 42.91594 | -65.93089 | 37029 ft | 488 kts | 63° |
| 2026-04-25 16:52 | 42.93832 | -65.84359 | 37025 ft | 488 kts | 63° |
| 2026-04-25 16:53 | 42.97182 | -65.71222 | 37016 ft | 486 kts | 64° |
| 2026-04-25 16:54 | 42.99394 | -65.62508 | 37012 ft | 486 kts | 64° |
| 2026-04-25 16:54 | 43.01593 | -65.53819 | 37003 ft | 486 kts | 64° |
| 2026-04-25 16:55 | 43.03793 | -65.45092 | 37004 ft | 486 kts | 64° |
| 2026-04-25 16:55 | 43.05993 | -65.36332 | 36993 ft | 486 kts | 65° |
| 2026-04-25 16:56 | 43.08170 | -65.27627 | 36995 ft | 485 kts | 65° |
| 2026-04-25 16:56 | 43.10348 | -65.18885 | 36985 ft | 485 kts | 65° |
| 2026-04-25 16:57 | 43.12516 | -65.10154 | 36983 ft | 485 kts | 65° |
| 2026-04-25 16:57 | 43.14675 | -65.01426 | 36980 ft | 485 kts | 65° |
| 2026-04-25 16:58 | 43.16836 | -64.92656 | 36979 ft | 485 kts | 65° |
| 2026-04-25 16:58 | 43.18974 | -64.83944 | 36977 ft | 485 kts | 65° |
| 2026-04-25 16:59 | 43.21122 | -64.75162 | 36979 ft | 485 kts | 66° |
| 2026-04-25 16:59 | 43.23261 | -64.66380 | 36972 ft | 485 kts | 66° |
| 2026-04-25 17:00 | 43.25393 | -64.57592 | 36984 ft | 485 kts | 66° |
| 2026-04-25 17:00 | 43.27261 | -64.49870 | 36968 ft | 485 kts | 66° |
| 2026-04-25 17:01 | 43.29391 | -64.41026 | 36969 ft | 484 kts | 66° |
| 2026-04-25 17:01 | 43.31492 | -64.32267 | 36960 ft | 484 kts | 66° |
| 2026-04-25 17:02 | 43.33591 | -64.23488 | 36958 ft | 483 kts | 66° |
| 2026-04-25 17:02 | 43.35678 | -64.14721 | 36964 ft | 482 kts | 66° |
| 2026-04-25 17:03 | 43.37748 | -64.05992 | 36949 ft | 480 kts | 67° |
| 2026-04-25 17:03 | 43.39809 | -63.97271 | 36944 ft | 480 kts | 67° |
| 2026-04-25 17:04 | 43.41866 | -63.88529 | 36940 ft | 480 kts | 67° |
| 2026-04-25 17:04 | 43.43920 | -63.79768 | 36942 ft | 480 kts | 67° |
| 2026-04-25 17:05 | 43.45963 | -63.71022 | 36930 ft | 479 kts | 67° |
| 2026-04-25 17:05 | 43.48994 | -63.57973 | 36928 ft | 478 kts | 67° |
| 2026-04-25 17:06 | 43.51011 | -63.49251 | 36925 ft | 478 kts | 67° |
| 2026-04-25 17:06 | 43.53029 | -63.40487 | 36923 ft | 479 kts | 67° |
| 2026-04-25 17:07 | 43.54699 | -63.33211 | 36919 ft | 479 kts | 67° |
| 2026-04-25 17:07 | 43.56702 | -63.24449 | 36917 ft | 479 kts | 67° |
| 2026-04-25 17:08 | 43.58695 | -63.15694 | 36917 ft | 479 kts | 67° |
| 2026-04-25 17:08 | 43.60687 | -63.06911 | 36904 ft | 479 kts | 67° |
| 2026-04-25 17:09 | 43.62672 | -62.98122 | 36906 ft | 479 kts | 68° |
| 2026-04-25 17:09 | 43.64647 | -62.89343 | 36903 ft | 479 kts | 68° |
| 2026-04-25 17:10 | 43.66615 | -62.80559 | 36898 ft | 479 kts | 68° |
| 2026-04-25 17:10 | 43.68574 | -62.71780 | 36890 ft | 479 kts | 68° |
| 2026-04-25 17:11 | 43.70531 | -62.62971 | 36888 ft | 479 kts | 68° |
| 2026-04-25 17:11 | 43.72473 | -62.54198 | 36884 ft | 479 kts | 68° |
| 2026-04-25 17:12 | 43.74423 | -62.45349 | 36887 ft | 479 kts | 68° |
| 2026-04-25 17:12 | 43.76362 | -62.36514 | 36870 ft | 480 kts | 68° |
| 2026-04-25 17:13 | 43.77968 | -62.29167 | 36870 ft | 480 kts | 68° |
| 2026-04-25 17:13 | 43.80210 | -62.18875 | 36859 ft | 480 kts | 68° |
| 2026-04-25 17:14 | 43.82124 | -62.10042 | 36858 ft | 480 kts | 68° |
| 2026-04-25 17:14 | 43.84043 | -62.01151 | 36857 ft | 481 kts | 68° |
| 2026-04-25 17:15 | 43.85947 | -61.92291 | 36855 ft | 481 kts | 68° |
| 2026-04-25 17:15 | 43.87854 | -61.83383 | 36839 ft | 481 kts | 69° |
| 2026-04-25 17:16 | 43.89747 | -61.74499 | 36839 ft | 481 kts | 69° |
| 2026-04-25 17:16 | 43.91639 | -61.65583 | 36835 ft | 481 kts | 69° |
| 2026-04-25 17:17 | 43.93512 | -61.56717 | 36827 ft | 481 kts | 69° |
| 2026-04-25 17:17 | 43.95393 | -61.47774 | 36824 ft | 482 kts | 69° |
| 2026-04-25 17:18 | 43.97258 | -61.38870 | 36818 ft | 482 kts | 69° |
| 2026-04-25 17:18 | 43.99123 | -61.29928 | 36809 ft | 482 kts | 69° |
| 2026-04-25 17:19 | 44.00982 | -61.20976 | 36811 ft | 482 kts | 69° |
| 2026-04-25 17:19 | 44.02836 | -61.12007 | 36807 ft | 482 kts | 69° |
| 2026-04-25 17:20 | 44.04671 | -61.03094 | 36803 ft | 483 kts | 69° |
| 2026-04-25 17:20 | 44.06514 | -60.94108 | 36788 ft | 483 kts | 69° |
| 2026-04-25 17:21 | 44.08356 | -60.85081 | 36791 ft | 483 kts | 69° |
| 2026-04-25 17:21 | 44.10187 | -60.76064 | 36777 ft | 483 kts | 69° |
| 2026-04-25 17:22 | 44.11697 | -60.68596 | 36781 ft | 483 kts | 70° |
| 2026-04-25 17:22 | 44.13807 | -60.58120 | 36774 ft | 483 kts | 69° |
| 2026-04-25 17:23 | 44.15615 | -60.49090 | 36769 ft | 483 kts | 70° |
| 2026-04-25 17:23 | 44.17413 | -60.40074 | 36766 ft | 483 kts | 69° |
| 2026-04-25 17:24 | 44.19204 | -60.31053 | 36757 ft | 483 kts | 70° |
| 2026-04-25 17:24 | 44.20989 | -60.22020 | 36758 ft | 483 kts | 70° |
| 2026-04-25 17:25 | 44.22767 | -60.12981 | 36758 ft | 483 kts | 70° |
| 2026-04-25 17:25 | 44.24539 | -60.03932 | 36744 ft | 483 kts | 70° |
| 2026-04-25 17:26 | 44.26301 | -59.94891 | 36742 ft | 483 kts | 70° |
| 2026-04-25 17:26 | 44.28058 | -59.85837 | 36732 ft | 483 kts | 70° |
| 2026-04-25 17:27 | 44.29797 | -59.76829 | 36733 ft | 483 kts | 71° |
| 2026-04-25 17:27 | 44.30958 | -59.70791 | 36726 ft | 483 kts | 71° |
| 2026-04-25 17:28 | 44.33268 | -59.58729 | 36721 ft | 483 kts | 71° |
| 2026-04-25 17:28 | 44.34992 | -59.49673 | 36719 ft | 483 kts | 71° |
| 2026-04-25 17:29 | 44.36709 | -59.40614 | 36723 ft | 483 kts | 71° |
| 2026-04-25 17:29 | 44.38430 | -59.31487 | 36707 ft | 484 kts | 71° |
| 2026-04-25 17:30 | 44.40136 | -59.22403 | 36707 ft | 484 kts | 71° |
| 2026-04-25 17:30 | 44.41838 | -59.13300 | 36702 ft | 484 kts | 71° |
| 2026-04-25 17:31 | 44.43530 | -59.04198 | 36699 ft | 484 kts | 71° |
| 2026-04-25 17:31 | 44.45221 | -58.95053 | 36691 ft | 484 kts | 71° |
| 2026-04-25 17:32 | 44.46901 | -58.85926 | 36698 ft | 484 kts | 71° |
| 2026-04-25 17:32 | 44.48573 | -58.76796 | 36697 ft | 484 kts | 71° |
| 2026-04-25 17:33 | 44.50228 | -58.67715 | 36669 ft | 484 kts | 71° |
| 2026-04-25 17:33 | 44.51888 | -58.58567 | 36669 ft | 484 kts | 71° |
| 2026-04-25 17:34 | 44.53541 | -58.49409 | 36671 ft | 484 kts | 71° |
| 2026-04-25 17:34 | 44.55184 | -58.40253 | 36669 ft | 484 kts | 72° |
| 2026-04-25 17:35 | 44.56810 | -58.31150 | 36658 ft | 484 kts | 71° |
| 2026-04-25 17:35 | 44.58438 | -58.21990 | 36656 ft | 484 kts | 72° |
| 2026-04-25 17:36 | 44.60059 | -58.12826 | 36650 ft | 483 kts | 72° |
| 2026-04-25 17:36 | 44.61672 | -58.03664 | 36662 ft | 484 kts | 72° |
| 2026-04-25 17:37 | 44.63278 | -57.94488 | 36645 ft | 484 kts | 72° |
| 2026-04-25 17:37 | 44.64875 | -57.85320 | 36644 ft | 484 kts | 72° |
| 2026-04-25 17:38 | 44.65940 | -57.79182 | 36641 ft | 484 kts | 72° |
| 2026-04-25 17:38 | 44.68057 | -57.66914 | 36630 ft | 484 kts | 72° |
| 2026-04-25 17:39 | 44.69623 | -57.57780 | 36629 ft | 484 kts | 72° |
| 2026-04-25 17:39 | 44.71200 | -57.48537 | 36622 ft | 485 kts | 72° |
| 2026-04-25 17:40 | 44.72767 | -57.39308 | 36608 ft | 485 kts | 72° |
| 2026-04-25 17:40 | 44.74323 | -57.30085 | 36608 ft | 485 kts | 72° |
| 2026-04-25 17:41 | 44.75874 | -57.20849 | 36603 ft | 485 kts | 72° |
| 2026-04-25 17:41 | 44.77418 | -57.11604 | 36609 ft | 485 kts | 72° |
| 2026-04-25 17:42 | 44.78945 | -57.02419 | 36595 ft | 486 kts | 73° |
| 2026-04-25 17:42 | 44.80476 | -56.93161 | 36587 ft | 486 kts | 73° |
| 2026-04-25 17:43 | 44.82004 | -56.83861 | 36581 ft | 486 kts | 73° |
| 2026-04-25 17:43 | 44.83515 | -56.74613 | 36581 ft | 486 kts | 73° |
| 2026-04-25 17:44 | 44.85031 | -56.65287 | 36575 ft | 486 kts | 73° |
| 2026-04-25 17:44 | 44.86532 | -56.56002 | 36572 ft | 486 kts | 73° |
| 2026-04-25 17:45 | 44.87519 | -56.49864 | 36567 ft | 486 kts | 73° |
| 2026-04-25 17:45 | 44.89501 | -56.37479 | 36558 ft | 486 kts | 73° |
| 2026-04-25 17:46 | 44.90985 | -56.28150 | 36557 ft | 486 kts | 73° |
| 2026-04-25 17:46 | 44.92454 | -56.18855 | 36556 ft | 486 kts | 74° |
| 2026-04-25 17:47 | 44.93917 | -56.09544 | 36544 ft | 485 kts | 73° |
| 2026-04-25 17:47 | 44.95372 | -56.00233 | 36543 ft | 485 kts | 74° |
| 2026-04-25 17:48 | 44.97536 | -55.86291 | 36515 ft | 486 kts | 73° |
| 2026-04-25 17:49 | 44.98979 | -55.76939 | 36528 ft | 486 kts | 73° |
| 2026-04-25 17:49 | 45.00399 | -55.67659 | 36520 ft | 486 kts | 73° |
| 2026-04-25 17:50 | 45.01821 | -55.58312 | 36518 ft | 485 kts | 74° |
| 2026-04-25 17:50 | 45.03231 | -55.49000 | 36508 ft | 485 kts | 73° |
| 2026-04-25 17:51 | 45.04639 | -55.39682 | 36648 ft | 483 kts | 74° |
| 2026-04-25 17:51 | 45.05402 | -55.35035 | 36501 ft | 486 kts | 72° |
| 2026-04-25 17:51 | 45.05894 | -55.31920 | 36505 ft | 488 kts | 73° |
| 2026-04-25 17:52 | 45.07264 | -55.22532 | 36569 ft | 488 kts | 75° |
| 2026-04-25 17:52 | 45.08317 | -55.15128 | 36782 ft | 487 kts | 75° |
| 2026-04-25 17:53 | 45.09674 | -55.05738 | 36975 ft | 488 kts | 73° |
| 2026-04-25 17:53 | 45.10359 | -55.01038 | 37098 ft | 487 kts | 75° |
| 2026-04-25 17:53 | 45.10826 | -54.97841 | 37139 ft | 488 kts | 75° |
| 2026-04-25 17:53 | 45.11503 | -54.93197 | 37265 ft | 487 kts | 74° |
| 2026-04-25 17:54 | 45.12195 | -54.88446 | 37363 ft | 488 kts | 74° |
| 2026-04-25 17:54 | 45.13553 | -54.79075 | 37478 ft | 490 kts | 75° |
| 2026-04-25 17:55 | 45.14916 | -54.69599 | 37464 ft | 488 kts | 75° |
| 2026-04-25 17:55 | 45.16263 | -54.60180 | 37456 ft | 487 kts | 76° |
| 2026-04-25 17:56 | 45.17600 | -54.50766 | 37449 ft | 487 kts | 74° |
| 2026-04-25 17:56 | 45.18926 | -54.41371 | 37445 ft | 487 kts | 75° |
| 2026-04-25 17:57 | 45.20252 | -54.31915 | 37438 ft | 487 kts | 75° |
| 2026-04-25 17:57 | 45.21561 | -54.22532 | 37434 ft | 487 kts | 75° |
| 2026-04-25 17:58 | 45.22868 | -54.13095 | 37428 ft | 489 kts | 76° |
| 2026-04-25 17:58 | 45.24174 | -54.03609 | 37426 ft | 489 kts | 75° |
| 2026-04-25 17:59 | 45.25470 | -53.94129 | 37425 ft | 489 kts | 76° |
| 2026-04-25 17:59 | 45.26760 | -53.84640 | 37401 ft | 489 kts | 75° |
| 2026-04-25 18:00 | 45.28042 | -53.75157 | 37416 ft | 489 kts | 75° |
| 2026-04-25 18:00 | 45.29307 | -53.65727 | 37407 ft | 489 kts | 75° |
| 2026-04-25 18:01 | 45.30575 | -53.56208 | 37402 ft | 491 kts | 76° |
| 2026-04-25 18:01 | 45.31838 | -53.46646 | 37389 ft | 492 kts | 76° |
| 2026-04-25 18:02 | 45.33093 | -53.37081 | 37392 ft | 492 kts | 76° |
| 2026-04-25 18:02 | 45.34343 | -53.27513 | 37385 ft | 492 kts | 76° |
| 2026-04-25 18:03 | 45.35577 | -53.17992 | 37382 ft | 492 kts | 77° |
| 2026-04-25 18:03 | 45.36809 | -53.08439 | 37375 ft | 493 kts | 77° |
| 2026-04-25 18:04 | 45.38042 | -52.98816 | 37375 ft | 493 kts | 77° |
| 2026-04-25 18:04 | 45.39259 | -52.89207 | 37371 ft | 494 kts | 77° |
| 2026-04-25 18:05 | 45.40472 | -52.79591 | 37357 ft | 494 kts | 77° |
| 2026-04-25 18:05 | 45.41679 | -52.69965 | 37359 ft | 494 kts | 77° |
| 2026-04-25 18:06 | 45.42873 | -52.60359 | 37354 ft | 494 kts | 77° |
| 2026-04-25 18:06 | 45.44058 | -52.50744 | 37349 ft | 494 kts | 77° |
| 2026-04-25 18:07 | 45.45239 | -52.41098 | 37353 ft | 494 kts | 77° |
| 2026-04-25 18:07 | 45.46415 | -52.31417 | 37333 ft | 496 kts | 78° |
| 2026-04-25 18:08 | 45.47587 | -52.21709 | 37335 ft | 497 kts | 78° |
| 2026-04-25 18:08 | 45.48754 | -52.11974 | 37328 ft | 497 kts | 78° |
| 2026-04-25 18:09 | 45.49936 | -52.02332 | 37331 ft | 496 kts | 74° |
| 2026-04-25 18:09 | 45.52002 | -51.92987 | 37327 ft | 494 kts | 68° |
| 2026-04-25 18:10 | 45.54363 | -51.83776 | 37314 ft | 495 kts | 67° |
| 2026-04-25 18:10 | 45.56771 | -51.74568 | 37308 ft | 496 kts | 67° |
| 2026-04-25 18:11 | 45.59168 | -51.65334 | 37306 ft | 495 kts | 67° |
| 2026-04-25 18:11 | 45.61543 | -51.56094 | 37306 ft | 495 kts | 68° |
| 2026-04-25 18:12 | 45.63907 | -51.46843 | 37297 ft | 496 kts | 67° |
| 2026-04-25 18:12 | 45.66248 | -51.37646 | 37296 ft | 495 kts | 68° |
| 2026-04-25 18:13 | 45.68593 | -51.28394 | 37286 ft | 495 kts | 68° |
| 2026-04-25 18:13 | 45.70950 | -51.19064 | 37284 ft | 495 kts | 68° |
| 2026-04-25 18:14 | 45.74426 | -51.05233 | 37275 ft | 494 kts | 68° |
| 2026-04-25 18:14 | 45.76749 | -50.95943 | 37268 ft | 494 kts | 68° |
| 2026-04-25 18:15 | 45.79060 | -50.86660 | 37261 ft | 496 kts | 68° |
| 2026-04-25 18:15 | 45.81368 | -50.77358 | 37267 ft | 498 kts | 68° |
| 2026-04-25 18:16 | 45.83680 | -50.67998 | 37258 ft | 498 kts | 69° |
| 2026-04-25 18:17 | 45.87131 | -50.53950 | 37250 ft | 498 kts | 69° |
| 2026-04-25 18:17 | 45.89425 | -50.44564 | 37246 ft | 498 kts | 68° |
| 2026-04-25 18:18 | 45.91708 | -50.35184 | 37244 ft | 497 kts | 69° |
| 2026-04-25 18:18 | 45.93989 | -50.25771 | 37233 ft | 498 kts | 69° |
| 2026-04-25 18:19 | 45.96253 | -50.16391 | 37230 ft | 498 kts | 69° |
| 2026-04-25 18:19 | 45.98514 | -50.06983 | 37226 ft | 498 kts | 69° |
| 2026-04-25 18:20 | 46.00781 | -49.97535 | 37229 ft | 499 kts | 69° |
| 2026-04-25 18:20 | 46.03132 | -49.88134 | 37218 ft | 499 kts | 68° |
| 2026-04-25 18:21 | 46.05496 | -49.78804 | 37215 ft | 499 kts | 68° |
| 2026-04-25 18:21 | 46.07854 | -49.69412 | 37223 ft | 499 kts | 68° |
| 2026-04-25 18:22 | 46.10201 | -49.59980 | 37215 ft | 499 kts | 69° |
| 2026-04-25 18:22 | 46.12529 | -49.50567 | 37212 ft | 499 kts | 69° |
| 2026-04-25 18:23 | 46.14849 | -49.41148 | 37210 ft | 498 kts | 69° |
| 2026-04-25 18:23 | 46.17162 | -49.31721 | 37208 ft | 498 kts | 69° |
| 2026-04-25 18:24 | 46.19473 | -49.22263 | 37207 ft | 498 kts | 69° |
| 2026-04-25 18:24 | 46.21768 | -49.12829 | 37211 ft | 500 kts | 69° |
| 2026-04-25 18:25 | 46.24059 | -49.03376 | 37207 ft | 501 kts | 69° |
| 2026-04-25 18:25 | 46.26354 | -48.93868 | 37208 ft | 501 kts | 70° |
| 2026-04-25 18:26 | 46.28640 | -48.84351 | 37215 ft | 501 kts | 70° |
| 2026-04-25 18:26 | 46.30924 | -48.74807 | 37217 ft | 503 kts | 70° |
| 2026-04-25 18:27 | 46.33206 | -48.65224 | 37225 ft | 504 kts | 70° |
| 2026-04-25 18:27 | 46.35480 | -48.55635 | 37206 ft | 503 kts | 70° |
| 2026-04-25 18:28 | 46.37731 | -48.46101 | 37227 ft | 502 kts | 70° |
| 2026-04-25 18:28 | 46.39987 | -48.36509 | 37240 ft | 502 kts | 70° |
| 2026-04-25 18:29 | 46.43352 | -48.22113 | 37236 ft | 503 kts | 71° |
| 2026-04-25 18:30 | 46.47822 | -48.02842 | 37256 ft | 507 kts | 71° |
| 2026-04-25 18:30 | 46.50069 | -47.93103 | 37259 ft | 505 kts | 72° |
| 2026-04-25 18:31 | 46.52274 | -47.83491 | 37260 ft | 504 kts | 72° |
| 2026-04-25 18:31 | 46.54487 | -47.73800 | 37261 ft | 504 kts | 72° |
| 2026-04-25 18:32 | 46.56688 | -47.64120 | 37274 ft | 504 kts | 72° |
| 2026-04-25 18:32 | 46.58880 | -47.54435 | 37287 ft | 503 kts | 71° |
| 2026-04-25 18:33 | 46.61060 | -47.44756 | 37285 ft | 503 kts | 72° |
| 2026-04-25 18:33 | 46.63232 | -47.35076 | 37293 ft | 503 kts | 72° |
| 2026-04-25 18:34 | 46.65384 | -47.25441 | 37300 ft | 504 kts | 72° |
| 2026-04-25 18:34 | 46.67583 | -47.15767 | 37314 ft | 503 kts | 71° |
| 2026-04-25 18:35 | 46.69849 | -47.06119 | 37308 ft | 503 kts | 72° |
| 2026-04-25 18:35 | 46.71912 | -46.96380 | 37320 ft | 503 kts | 73° |
| 2026-04-25 18:36 | 46.73624 | -46.88251 | 37334 ft | 503 kts | 73° |
| 2026-04-25 18:36 | 46.76074 | -46.76859 | 37337 ft | 503 kts | 73° |
| 2026-04-25 18:37 | 46.77825 | -46.68795 | 37340 ft | 502 kts | 74° |
| 2026-04-25 18:37 | 46.79936 | -46.59055 | 37352 ft | 503 kts | 73° |
| 2026-04-25 18:38 | 46.82037 | -46.49312 | 37355 ft | 503 kts | 73° |
| 2026-04-25 18:38 | 46.84125 | -46.39569 | 37343 ft | 502 kts | 74° |
| 2026-04-25 18:39 | 46.86192 | -46.29874 | 37360 ft | 503 kts | 74° |
| 2026-04-25 18:39 | 46.88264 | -46.20103 | 37381 ft | 503 kts | 74° |
| 2026-04-25 18:40 | 46.90330 | -46.10322 | 37389 ft | 503 kts | 74° |
| 2026-04-25 18:40 | 46.92390 | -46.00525 | 37390 ft | 503 kts | 74° |
| 2026-04-25 18:41 | 46.94439 | -45.90730 | 37395 ft | 503 kts | 74° |
| 2026-04-25 18:41 | 46.96467 | -45.80990 | 37405 ft | 503 kts | 74° |
| 2026-04-25 18:42 | 46.98167 | -45.72786 | 37408 ft | 503 kts | 74° |
| 2026-04-25 18:42 | 47.00534 | -45.61311 | 37408 ft | 503 kts | 74° |
| 2026-04-25 18:43 | 47.02534 | -45.51565 | 37411 ft | 502 kts | 75° |
| 2026-04-25 18:43 | 47.04532 | -45.41777 | 37418 ft | 502 kts | 75° |
| 2026-04-25 18:44 | 47.06532 | -45.31927 | 37441 ft | 503 kts | 75° |
| 2026-04-25 18:44 | 47.08512 | -45.22132 | 37419 ft | 503 kts | 75° |
| 2026-04-25 18:45 | 47.10501 | -45.12242 | 37445 ft | 503 kts | 75° |
| 2026-04-25 18:45 | 47.12460 | -45.02456 | 37450 ft | 502 kts | 75° |
| 2026-04-25 18:46 | 47.14423 | -44.92599 | 37458 ft | 502 kts | 75° |
| 2026-04-25 18:46 | 47.16374 | -44.82749 | 37457 ft | 502 kts | 75° |
| 2026-04-25 18:47 | 47.18316 | -44.72902 | 37460 ft | 502 kts | 76° |
| 2026-04-25 18:47 | 47.20247 | -44.63054 | 37470 ft | 501 kts | 76° |
| 2026-04-25 18:48 | 47.22173 | -44.53183 | 37471 ft | 501 kts | 76° |
| 2026-04-25 18:48 | 47.24091 | -44.43300 | 37471 ft | 502 kts | 76° |
| 2026-04-25 18:49 | 47.26003 | -44.33399 | 37479 ft | 503 kts | 76° |
| 2026-04-25 18:49 | 47.27899 | -44.23532 | 37494 ft | 503 kts | 77° |
| 2026-04-25 18:50 | 47.29797 | -44.13601 | 37497 ft | 503 kts | 77° |
| 2026-04-25 18:50 | 47.31684 | -44.03676 | 37497 ft | 503 kts | 77° |
| 2026-04-25 18:51 | 47.33252 | -43.95391 | 37487 ft | 503 kts | 77° |
| 2026-04-25 18:51 | 47.35441 | -43.83756 | 37506 ft | 504 kts | 77° |
| 2026-04-25 18:52 | 47.37307 | -43.73788 | 37509 ft | 504 kts | 77° |
| 2026-04-25 18:52 | 47.39151 | -43.63878 | 37509 ft | 504 kts | 77° |
| 2026-04-25 18:53 | 47.40997 | -43.53907 | 37499 ft | 503 kts | 77° |
| 2026-04-25 18:53 | 47.42836 | -43.43923 | 37501 ft | 503 kts | 78° |
| 2026-04-25 18:54 | 47.45573 | -43.28951 | 37526 ft | 504 kts | 78° |
| 2026-04-25 18:55 | 47.47394 | -43.18930 | 37525 ft | 504 kts | 78° |
| 2026-04-25 18:55 | 47.49206 | -43.08899 | 37513 ft | 504 kts | 78° |
| 2026-04-25 18:56 | 47.51005 | -42.98893 | 37526 ft | 503 kts | 78° |
| 2026-04-25 18:56 | 47.52781 | -42.88953 | 37526 ft | 502 kts | 78° |
| 2026-04-25 18:57 | 47.54556 | -42.78957 | 37532 ft | 502 kts | 78° |
| 2026-04-25 18:57 | 47.56325 | -42.68945 | 37522 ft | 502 kts | 79° |
| 2026-04-25 18:58 | 47.58084 | -42.58935 | 37537 ft | 502 kts | 78° |
| 2026-04-25 18:58 | 47.60702 | -42.43930 | 37540 ft | 501 kts | 79° |
| 2026-04-25 18:59 | 47.64162 | -42.23902 | 37536 ft | 501 kts | 79° |
| 2026-04-25 19:00 | 47.66732 | -42.08873 | 37542 ft | 501 kts | 79° |
| 2026-04-25 19:01 | 47.69288 | -41.93798 | 37540 ft | 501 kts | 79° |
| 2026-04-25 19:01 | 47.70977 | -41.83763 | 37545 ft | 501 kts | 79° |
| 2026-04-25 19:02 | 47.73486 | -41.68748 | 37545 ft | 501 kts | 79° |
| 2026-04-25 19:03 | 47.75426 | -41.57045 | 37545 ft | 501 kts | 79° |
| 2026-04-25 19:03 | 47.77639 | -41.43602 | 37543 ft | 501 kts | 80° |
| 2026-04-25 19:04 | 47.79270 | -41.33612 | 37550 ft | 503 kts | 80° |
| 2026-04-25 19:05 | 47.81732 | -41.18443 | 37551 ft | 503 kts | 80° |
| 2026-04-25 19:06 | 47.83454 | -41.08362 | 37520 ft | 504 kts | 78° |